createdAt,value
2022-10-28T00:01:14.770Z,18.03
2022-10-28T00:03:48.967Z,18.07
2022-10-28T00:06:18.780Z,18.06
2022-10-28T00:08:45.563Z,18.02
2022-10-28T00:11:17.725Z,17.85
2022-10-28T00:13:45.678Z,17.78
2022-10-28T00:16:21.169Z,17.74
2022-10-28T00:18:48.446Z,17.59
2022-10-28T00:21:18.597Z,17.60
2022-10-28T00:23:45.602Z,17.59
2022-10-28T00:26:19.258Z,17.52
2022-10-28T00:28:48.540Z,17.51
2022-10-28T00:31:18.136Z,17.55
2022-10-28T00:33:45.477Z,17.52
2022-10-28T00:36:16.329Z,17.52
2022-10-28T00:38:44.980Z,17.48
2022-10-28T00:41:14.089Z,17.45
2022-10-28T00:43:43.026Z,17.38
2022-10-28T00:46:40.702Z,17.23
2022-10-28T00:49:14.726Z,17.25
2022-10-28T00:51:44.228Z,17.11
2022-10-28T00:54:12.135Z,16.93
2022-10-28T00:56:43.954Z,16.73
2022-10-28T00:59:20.125Z,16.67
2022-10-28T01:01:46.944Z,16.57
2022-10-28T01:04:13.864Z,16.51
2022-10-28T01:06:41.777Z,16.35
2022-10-28T01:09:08.387Z,16.34
2022-10-28T01:11:59.708Z,16.35
2022-10-28T01:15:16.936Z,16.20
2022-10-28T01:18:08.311Z,16.04
2022-10-28T01:20:54.453Z,15.97
2022-10-28T01:23:38.204Z,15.94
2022-10-28T01:26:29.060Z,15.98
2022-10-28T01:29:04.608Z,16.02
2022-10-28T01:31:54.288Z,15.98
2022-10-28T01:34:39.609Z,15.85
2022-10-28T01:37:14.792Z,15.73
2022-10-28T01:40:09.824Z,15.77
2022-10-28T01:43:06.469Z,15.61
2022-10-28T01:45:44.820Z,15.58
2022-10-28T01:48:23.126Z,15.45
2022-10-28T01:51:07.915Z,15.32
2022-10-28T01:53:38.875Z,15.26
2022-10-28T01:56:10.879Z,15.22
2022-10-28T01:58:39.089Z,15.19
2022-10-28T02:01:08.006Z,15.19
2022-10-28T02:03:34.892Z,15.17
2022-10-28T02:06:05.339Z,15.13
2022-10-28T02:08:31.937Z,15.10
2022-10-28T02:11:01.501Z,15.11
2022-10-28T02:14:07.037Z,15.10
2022-10-28T02:16:43.790Z,15.06
2022-10-28T02:19:22.078Z,15.19
2022-10-28T02:21:48.538Z,15.23
2022-10-28T02:24:19.847Z,15.26
2022-10-28T02:26:54.637Z,15.33
2022-10-28T02:29:30.133Z,15.39
2022-10-28T02:32:03.207Z,15.48
2022-10-28T02:34:34.905Z,15.52
2022-10-28T02:37:06.385Z,15.50
2022-10-28T02:39:39.705Z,15.45
2022-10-28T02:42:13.612Z,15.38
2022-10-28T02:44:45.516Z,15.38
2022-10-28T02:47:19.193Z,15.23
2022-10-28T02:49:53.585Z,15.27
2022-10-28T02:52:23.301Z,15.40
2022-10-28T02:54:58.927Z,15.39
2022-10-28T02:57:32.853Z,15.38
2022-10-28T03:00:02.121Z,15.52
2022-10-28T03:02:29.303Z,15.62
2022-10-28T03:04:55.932Z,15.55
2022-10-28T03:07:22.846Z,15.46
2022-10-28T03:09:49.553Z,15.33
2022-10-28T03:12:16.123Z,15.32
2022-10-28T03:14:42.830Z,15.41
2022-10-28T03:17:09.685Z,15.31
2022-10-28T03:19:36.372Z,15.42
2022-10-28T03:22:03.154Z,15.49
2022-10-28T03:24:29.738Z,15.51
2022-10-28T03:26:56.349Z,15.51
2022-10-28T03:29:23.067Z,15.59
2022-10-28T03:31:49.748Z,15.72
2022-10-28T03:34:16.418Z,15.77
2022-10-28T03:36:43.274Z,15.75
2022-10-28T03:39:09.948Z,15.63
2022-10-28T03:41:36.564Z,15.61
2022-10-28T03:44:03.173Z,15.59
2022-10-28T03:46:32.259Z,15.50
2022-10-28T03:49:01.713Z,15.50
2022-10-28T03:51:28.348Z,15.61
2022-10-28T03:53:54.971Z,15.80
2022-10-28T03:56:22.416Z,15.86
2022-10-28T03:58:49.209Z,15.88
2022-10-28T04:01:16.546Z,15.83
2022-10-28T04:03:43.256Z,15.86
2022-10-28T04:06:12.597Z,15.96
2022-10-28T04:08:39.215Z,16.00
2022-10-28T04:11:06.152Z,16.06
2022-10-28T04:13:32.795Z,16.13
2022-10-28T04:15:59.369Z,16.19
2022-10-28T04:18:25.971Z,16.18
2022-10-28T04:20:52.521Z,16.03
2022-10-28T04:23:19.354Z,15.90
2022-10-28T04:25:46.173Z,15.77
2022-10-28T04:28:12.842Z,15.62
2022-10-28T04:30:39.440Z,15.47
2022-10-28T04:33:06.026Z,15.35
2022-10-28T04:35:32.616Z,15.33
2022-10-28T04:37:59.209Z,15.35
2022-10-28T04:40:26.108Z,15.32
2022-10-28T04:42:52.860Z,15.30
2022-10-28T04:45:19.786Z,15.24
2022-10-28T04:47:46.359Z,15.25
2022-10-28T04:50:12.966Z,15.28
2022-10-28T04:52:39.550Z,15.33
2022-10-28T04:55:06.405Z,15.25
2022-10-28T04:57:33.180Z,15.43
2022-10-28T04:59:59.725Z,15.42
2022-10-28T05:02:27.685Z,15.52
2022-10-28T05:04:54.369Z,15.68
2022-10-28T05:07:23.491Z,15.72
2022-10-28T05:09:50.300Z,15.75
2022-10-28T05:12:16.881Z,15.79
2022-10-28T05:14:43.449Z,15.70
2022-10-28T05:17:11.693Z,15.59
2022-10-28T05:19:38.276Z,15.59
2022-10-28T05:22:04.976Z,15.55
2022-10-28T05:24:31.562Z,15.53
2022-10-28T05:26:59.959Z,15.57
2022-10-28T05:29:30.899Z,15.60
2022-10-28T05:32:00.040Z,15.56
2022-10-28T05:34:26.798Z,15.56
2022-10-28T05:36:53.473Z,15.60
2022-10-28T05:39:20.148Z,15.72
2022-10-28T05:41:46.787Z,15.94
2022-10-28T05:44:13.346Z,16.08
2022-10-28T05:46:39.989Z,16.12
2022-10-28T05:49:06.591Z,16.12
2022-10-28T05:51:33.171Z,16.38
2022-10-28T05:53:59.777Z,16.59
2022-10-28T05:56:27.224Z,16.86
2022-10-28T05:58:53.799Z,17.09
2022-10-28T06:01:20.445Z,17.46
2022-10-28T06:03:47.126Z,17.58
2022-10-28T06:06:13.794Z,17.74
2022-10-28T06:08:40.409Z,17.77
2022-10-28T06:11:05.476Z,17.91
2022-10-28T06:13:32.054Z,17.99
2022-10-28T06:15:58.728Z,18.18
2022-10-28T06:18:25.357Z,18.20
2022-10-28T06:20:56.990Z,18.38
2022-10-28T06:23:24.790Z,18.42
2022-10-28T06:25:59.296Z,18.64
2022-10-28T06:28:26.719Z,18.63
2022-10-28T06:30:53.463Z,18.82
2022-10-28T06:33:20.067Z,18.88
2022-10-28T06:35:46.678Z,18.91
2022-10-28T06:38:13.221Z,18.86
2022-10-28T06:40:39.863Z,18.90
2022-10-28T06:43:07.140Z,18.88
2022-10-28T06:45:34.149Z,18.94
2022-10-28T06:48:05.548Z,18.96
2022-10-28T06:50:34.281Z,18.88
2022-10-28T06:53:00.854Z,18.94
2022-10-28T06:55:28.568Z,19.01
2022-10-28T06:57:59.641Z,19.07
2022-10-28T07:00:27.119Z,19.14
2022-10-28T07:02:54.562Z,19.16
2022-10-28T07:05:22.475Z,19.18
2022-10-28T07:07:49.119Z,19.18
2022-10-28T07:10:15.969Z,19.21
2022-10-28T07:12:42.497Z,19.35
2022-10-28T07:15:10.339Z,19.49
2022-10-28T07:17:37.200Z,19.50
2022-10-28T07:20:04.506Z,19.59
2022-10-28T07:22:31.159Z,19.64
2022-10-28T07:24:57.688Z,19.59
2022-10-28T07:27:24.319Z,19.59
2022-10-28T07:29:50.802Z,19.68
2022-10-28T07:32:17.484Z,19.66
2022-10-28T07:34:43.986Z,19.67
2022-10-28T07:37:12.965Z,19.72
2022-10-28T07:39:39.745Z,19.72
2022-10-28T07:42:06.299Z,19.75
2022-10-28T07:44:32.972Z,19.87
2022-10-28T07:46:59.614Z,20.12
2022-10-28T07:49:26.310Z,20.10
2022-10-28T07:51:53.366Z,20.19
2022-10-28T07:54:20.137Z,20.22
2022-10-28T07:56:46.626Z,20.67
2022-10-28T07:59:13.629Z,20.98
2022-10-28T08:01:40.306Z,21.03
2022-10-28T08:04:06.933Z,21.07
2022-10-28T08:06:34.819Z,21.04
2022-10-28T08:09:01.638Z,20.97
2022-10-28T08:11:28.203Z,20.90
2022-10-28T08:13:56.025Z,20.90
2022-10-28T08:16:22.693Z,21.03
2022-10-28T08:18:49.294Z,21.10
2022-10-28T08:21:16.896Z,21.26
2022-10-28T08:23:46.894Z,21.35
2022-10-28T08:26:15.803Z,21.37
2022-10-28T08:28:43.235Z,21.42
2022-10-28T08:31:12.559Z,21.56
2022-10-28T08:33:45.498Z,21.50
2022-10-28T08:36:14.153Z,21.45
2022-10-28T08:38:45.580Z,21.29
2022-10-28T08:41:31.143Z,21.43
2022-10-28T08:44:35.411Z,21.78
2022-10-28T08:47:05.057Z,22.34
2022-10-28T08:49:34.900Z,22.70
2022-10-28T08:52:08.337Z,22.98
2022-10-28T08:54:41.253Z,23.26
2022-10-28T08:57:18.121Z,23.32
2022-10-28T08:59:46.638Z,23.10
2022-10-28T09:02:23.584Z,22.98
2022-10-28T09:04:58.227Z,22.91
2022-10-28T09:07:25.106Z,23.12
2022-10-28T09:09:53.363Z,23.43
2022-10-28T09:12:41.336Z,23.73
2022-10-28T09:15:38.832Z,23.60
2022-10-28T09:18:17.574Z,23.87
2022-10-28T09:20:44.238Z,24.18
2022-10-28T09:23:33.873Z,24.43
2022-10-28T09:26:00.357Z,24.56
2022-10-28T09:28:26.920Z,24.25
2022-10-28T09:31:05.456Z,23.97
2022-10-28T09:33:34.892Z,24.11
2022-10-28T09:36:04.402Z,24.17
2022-10-28T09:38:34.277Z,24.31
2022-10-28T09:41:06.570Z,24.66
2022-10-28T09:43:38.110Z,24.97
2022-10-28T09:46:13.237Z,25.17
2022-10-28T09:48:47.174Z,25.35
2022-10-28T09:51:28.876Z,25.32
2022-10-28T09:53:58.735Z,25.22
2022-10-28T09:56:26.525Z,24.98
2022-10-28T09:58:55.910Z,24.76
2022-10-28T10:01:22.617Z,24.51
2022-10-28T10:03:50.953Z,24.23
2022-10-28T10:06:38.464Z,24.16
2022-10-28T10:09:05.440Z,24.21
2022-10-28T10:11:46.840Z,24.24
2022-10-28T10:14:20.197Z,24.51
2022-10-28T10:16:57.679Z,24.93
2022-10-28T10:19:24.346Z,25.12
2022-10-28T10:21:54.370Z,25.03
2022-10-28T10:24:30.889Z,25.24
2022-10-28T10:27:01.896Z,25.33
2022-10-28T10:29:30.766Z,25.30
2022-10-28T10:32:29.676Z,25.52
2022-10-28T10:35:29.916Z,26.07
2022-10-28T10:37:59.649Z,26.49
2022-10-28T10:40:32.502Z,26.70
2022-10-28T10:43:17.353Z,26.99
2022-10-28T10:45:59.040Z,27.09
2022-10-28T10:48:26.228Z,27.05
2022-10-28T10:50:54.539Z,26.83
2022-10-28T10:53:32.164Z,26.50
2022-10-28T10:56:08.845Z,26.43
2022-10-28T10:58:40.190Z,26.44
2022-10-28T11:01:09.726Z,26.66
2022-10-28T11:04:08.045Z,26.55
2022-10-28T11:06:39.115Z,26.32
2022-10-28T11:09:17.930Z,26.65
2022-10-28T11:11:44.538Z,26.78
2022-10-28T11:14:11.016Z,26.99
2022-10-28T11:16:58.291Z,27.53
2022-10-28T11:19:30.183Z,27.45
2022-10-28T11:22:27.915Z,26.86
2022-10-28T11:25:28.586Z,26.66
2022-10-28T11:28:24.894Z,26.34
2022-10-28T11:31:21.579Z,26.01
2022-10-28T11:34:16.100Z,25.68
2022-10-28T11:37:09.863Z,25.78
2022-10-28T11:39:56.393Z,25.69
2022-10-28T11:42:59.730Z,25.75
2022-10-28T11:45:38.484Z,25.88
2022-10-28T11:48:26.445Z,26.22
2022-10-28T11:51:12.741Z,26.74
2022-10-28T11:53:54.189Z,26.59
2022-10-28T11:56:47.141Z,26.27
2022-10-28T11:59:50.762Z,25.72
2022-10-28T12:02:37.216Z,25.79
2022-10-28T12:05:33.557Z,25.60
2022-10-28T12:08:12.853Z,25.52
2022-10-28T12:10:57.755Z,25.41
2022-10-28T12:13:48.784Z,25.50
2022-10-28T12:16:21.817Z,25.58
2022-10-28T12:18:57.369Z,25.78
2022-10-28T12:21:36.714Z,26.07
2022-10-28T12:24:09.385Z,26.15
2022-10-28T12:26:48.025Z,26.28
2022-10-28T12:29:25.731Z,26.04
2022-10-28T12:31:59.012Z,25.63
2022-10-28T12:34:38.066Z,25.22
2022-10-28T12:37:31.725Z,25.32
2022-10-28T12:40:13.056Z,25.24
2022-10-28T12:42:52.339Z,25.14
2022-10-28T12:45:20.897Z,25.03
2022-10-28T12:48:15.196Z,25.00
2022-10-28T12:51:19.621Z,25.07
2022-10-28T12:53:51.783Z,25.01
2022-10-28T12:56:33.142Z,25.00
2022-10-28T12:59:15.713Z,25.11
2022-10-28T13:01:46.087Z,25.06
2022-10-28T13:04:13.490Z,24.91
2022-10-28T13:06:59.563Z,25.01
2022-10-28T13:09:39.533Z,24.98
2022-10-28T13:12:38.537Z,25.03
2022-10-28T13:15:19.020Z,24.94
2022-10-28T13:18:04.018Z,24.83
2022-10-28T13:21:14.726Z,24.86
2022-10-28T13:23:44.276Z,24.99
2022-10-28T13:26:22.982Z,25.00
2022-10-28T13:28:53.093Z,24.92
2022-10-28T13:31:20.584Z,24.73
2022-10-28T13:33:53.061Z,24.61
2022-10-28T13:36:26.116Z,24.50
2022-10-28T13:39:00.603Z,24.28
2022-10-28T13:41:44.698Z,24.28
2022-10-28T13:44:20.496Z,24.27
2022-10-28T13:47:00.671Z,24.25
2022-10-28T13:49:29.172Z,24.23
2022-10-28T13:52:03.021Z,24.22
2022-10-28T13:54:44.888Z,24.15
2022-10-28T13:57:35.467Z,24.20
2022-10-28T14:00:06.697Z,24.09
2022-10-28T14:02:56.931Z,24.15
2022-10-28T14:05:46.801Z,24.07
2022-10-28T14:08:33.746Z,24.08
2022-10-28T14:11:09.924Z,23.92
2022-10-28T14:13:41.182Z,23.90
2022-10-28T14:16:16.636Z,23.83
2022-10-28T14:18:52.230Z,23.87
2022-10-28T14:21:18.905Z,23.76
2022-10-28T14:23:45.466Z,23.76
2022-10-28T14:26:12.073Z,23.72
2022-10-28T14:28:38.636Z,23.55
2022-10-28T14:31:07.894Z,23.62
2022-10-28T14:33:43.785Z,23.56
2022-10-28T14:36:34.242Z,23.61
2022-10-28T14:39:03.920Z,23.46
2022-10-28T14:41:58.134Z,23.43
2022-10-28T14:44:49.603Z,23.20
2022-10-28T14:47:50.118Z,23.30
2022-10-28T14:50:22.556Z,23.14
2022-10-28T14:52:51.069Z,23.14
2022-10-28T14:55:49.152Z,23.09
2022-10-28T14:58:18.430Z,23.05
2022-10-28T15:01:09.783Z,22.98
2022-10-28T15:03:36.804Z,22.95
2022-10-28T15:06:23.672Z,22.90
2022-10-28T15:08:50.785Z,22.81
2022-10-28T15:11:18.341Z,22.85
2022-10-28T15:13:44.953Z,22.86
2022-10-28T15:16:25.444Z,22.87
2022-10-28T15:18:54.124Z,22.88
2022-10-28T15:21:22.622Z,22.81
2022-10-28T15:24:00.387Z,22.75
2022-10-28T15:26:27.154Z,22.79
2022-10-28T15:28:55.638Z,22.80
2022-10-28T15:31:22.108Z,22.56
2022-10-28T15:33:48.693Z,22.53
2022-10-28T15:36:22.398Z,22.52
2022-10-28T15:38:50.685Z,22.51
2022-10-28T15:41:23.060Z,22.47
2022-10-28T15:44:00.768Z,22.55
2022-10-28T15:46:29.040Z,22.47
2022-10-28T15:48:58.299Z,22.49
2022-10-28T15:51:25.448Z,22.51
2022-10-28T15:53:54.405Z,22.44
2022-10-28T15:56:26.318Z,22.33
2022-10-28T15:59:13.918Z,22.41
2022-10-28T16:01:41.317Z,22.25
2022-10-28T16:04:23.235Z,22.34
2022-10-28T16:06:52.157Z,22.25
2022-10-28T16:09:27.826Z,22.32
2022-10-28T16:11:57.681Z,22.30
2022-10-28T16:14:44.010Z,22.34
2022-10-28T16:17:23.988Z,22.35
2022-10-28T16:19:57.166Z,22.37
2022-10-28T16:22:26.412Z,22.36
2022-10-28T16:24:54.560Z,22.52
2022-10-28T16:27:23.849Z,22.35
2022-10-28T16:29:51.223Z,22.38
2022-10-28T16:32:28.938Z,22.45
2022-10-28T16:34:58.101Z,22.48
2022-10-28T16:37:27.521Z,22.39
2022-10-28T16:39:54.794Z,22.08
2022-10-28T16:42:22.342Z,21.92
2022-10-28T16:44:48.999Z,21.72
2022-10-28T16:47:20.840Z,21.58
2022-10-28T16:49:54.364Z,21.45
2022-10-28T16:52:29.991Z,21.34
2022-10-28T16:54:57.255Z,21.29
2022-10-28T16:59:50.809Z,21.04
2022-10-28T17:02:31.125Z,20.98
2022-10-28T17:04:58.668Z,20.94
2022-10-28T17:07:25.834Z,20.98
2022-10-28T17:09:52.474Z,20.86
2022-10-28T17:12:24.752Z,20.95
2022-10-28T17:14:51.609Z,20.85
2022-10-28T17:17:18.324Z,20.91
2022-10-28T17:19:46.645Z,20.77
2022-10-28T17:22:13.725Z,20.74
2022-10-28T17:24:40.199Z,20.67
2022-10-28T17:27:06.923Z,20.56
2022-10-28T17:29:33.708Z,20.45
2022-10-28T17:32:00.275Z,20.37
2022-10-28T17:34:26.761Z,20.46
2022-10-28T17:36:53.349Z,20.38
2022-10-28T17:39:25.621Z,20.40
2022-10-28T17:41:53.005Z,20.34
2022-10-28T17:44:19.652Z,20.24
2022-10-28T17:46:48.791Z,20.30
2022-10-28T17:49:15.693Z,20.30
2022-10-28T17:51:43.175Z,20.43
2022-10-28T17:54:10.239Z,20.35
2022-10-28T17:56:37.413Z,20.45
2022-10-28T17:59:04.404Z,20.35
2022-10-28T18:01:33.686Z,20.43
2022-10-28T18:04:01.133Z,20.48
2022-10-28T18:06:27.716Z,20.48
2022-10-28T18:08:54.413Z,20.46
2022-10-28T18:11:21.298Z,20.49
2022-10-28T18:13:51.395Z,20.48
2022-10-28T18:16:20.382Z,20.54
2022-10-28T18:18:47.708Z,20.53
2022-10-28T18:21:14.919Z,20.56
2022-10-28T18:23:41.574Z,20.58
2022-10-28T18:26:10.883Z,20.68
2022-10-28T18:28:38.664Z,20.77
2022-10-28T18:31:08.141Z,20.80
2022-10-28T18:33:35.589Z,20.70
2022-10-28T18:36:07.869Z,20.74
2022-10-28T18:38:34.496Z,20.67
2022-10-28T18:41:01.124Z,20.59
2022-10-28T18:43:28.292Z,20.63
2022-10-28T18:45:59.951Z,20.58
2022-10-28T18:48:26.598Z,20.53
2022-10-28T18:51:01.439Z,20.55
2022-10-28T18:53:28.009Z,20.45
2022-10-28T18:56:00.026Z,20.42
2022-10-28T18:58:27.208Z,20.41
2022-10-28T19:00:53.773Z,20.48
2022-10-28T19:03:22.860Z,20.55
2022-10-28T19:05:49.762Z,20.54
2022-10-28T19:08:16.332Z,20.55
2022-10-28T19:10:42.903Z,20.53
2022-10-28T19:13:09.511Z,20.41
2022-10-28T19:15:40.269Z,20.41
2022-10-28T19:18:06.935Z,20.45
2022-10-28T19:20:33.494Z,20.46
2022-10-28T19:23:01.838Z,20.55
2022-10-28T19:25:28.590Z,20.50
2022-10-28T19:27:55.172Z,20.53
2022-10-28T19:30:21.858Z,20.47
2022-10-28T19:32:48.407Z,20.45
2022-10-28T19:35:15.561Z,20.40
2022-10-28T19:37:42.200Z,20.34
2022-10-28T19:40:09.274Z,20.33
2022-10-28T19:42:38.577Z,20.38
2022-10-28T19:45:06.198Z,20.51
2022-10-28T19:47:32.749Z,20.46
2022-10-28T19:49:59.433Z,20.49
2022-10-28T19:52:25.988Z,20.51
2022-10-28T19:54:52.590Z,20.49
2022-10-28T19:57:19.104Z,20.51
2022-10-28T19:59:45.703Z,20.43
2022-10-28T20:02:12.381Z,20.37
2022-10-28T20:04:39.625Z,20.32
2022-10-28T20:07:06.211Z,20.40
2022-10-28T20:09:32.698Z,20.19
2022-10-28T20:11:59.335Z,20.13
2022-10-28T20:14:25.964Z,20.12
2022-10-28T20:16:52.582Z,20.11
2022-10-28T20:19:19.250Z,20.05
2022-10-28T20:21:48.523Z,20.00
2022-10-28T20:24:15.769Z,20.07
2022-10-28T20:26:42.390Z,20.03
2022-10-28T20:29:10.201Z,20.08
2022-10-28T20:31:39.112Z,19.96
2022-10-28T20:34:06.147Z,19.92
2022-10-28T20:36:39.626Z,19.93
2022-10-28T20:39:17.794Z,19.97
2022-10-28T20:41:46.032Z,20.09
2022-10-28T20:44:12.708Z,20.02
2022-10-28T20:46:39.838Z,19.88
2022-10-28T20:49:08.814Z,19.86
2022-10-28T20:51:36.288Z,19.86
2022-10-28T20:54:03.052Z,19.82
2022-10-28T20:56:36.368Z,19.67
2022-10-28T20:59:03.328Z,19.79
2022-10-28T21:01:32.632Z,19.81
2022-10-28T21:04:01.519Z,19.75
2022-10-28T21:06:28.648Z,19.63
2022-10-28T21:08:56.578Z,19.60
2022-10-28T21:11:24.228Z,19.58
2022-10-28T21:13:56.593Z,19.56
2022-10-28T21:16:24.066Z,19.57
2022-10-28T21:18:51.308Z,19.45
2022-10-28T21:21:22.115Z,19.52
2022-10-28T21:23:48.719Z,19.50
2022-10-28T21:26:15.605Z,19.46
2022-10-28T21:28:42.769Z,19.48
2022-10-28T21:31:14.749Z,19.51
2022-10-28T21:33:42.618Z,19.51
2022-10-28T21:36:15.091Z,19.47
2022-10-28T21:38:42.375Z,19.53
2022-10-28T21:41:13.147Z,19.35
2022-10-28T21:43:41.710Z,19.28
2022-10-28T21:46:08.702Z,19.19
2022-10-28T21:48:36.804Z,19.03
2022-10-28T21:51:09.932Z,18.87
2022-10-28T21:53:41.950Z,18.82
2022-10-28T21:56:18.081Z,18.67
2022-10-28T21:58:46.981Z,18.46
2022-10-28T22:01:16.726Z,18.29
2022-10-28T22:03:43.535Z,18.15
2022-10-28T22:06:10.833Z,18.00
2022-10-28T22:08:37.479Z,17.81
2022-10-28T22:11:05.443Z,17.73
2022-10-28T22:13:32.707Z,17.64
2022-10-28T22:16:01.775Z,17.65
2022-10-28T22:18:30.138Z,17.54
2022-10-28T22:20:57.347Z,17.44
2022-10-28T22:23:24.061Z,17.43
2022-10-28T22:25:50.787Z,17.39
2022-10-28T22:28:17.379Z,17.38
2022-10-28T22:30:43.992Z,17.33
2022-10-28T22:33:10.607Z,17.26
2022-10-28T22:35:37.176Z,17.19
2022-10-28T22:38:03.868Z,17.10
2022-10-28T22:40:30.435Z,17.03
2022-10-28T22:42:56.893Z,17.03
2022-10-28T22:45:23.491Z,17.03
2022-10-28T22:47:51.302Z,17.08
2022-10-28T22:50:17.953Z,17.14
2022-10-28T22:52:44.519Z,17.15
2022-10-28T22:55:11.127Z,17.17
2022-10-28T22:57:37.769Z,17.25
2022-10-28T23:00:04.834Z,17.34
2022-10-28T23:02:31.544Z,17.51
2022-10-28T23:04:58.184Z,17.74
2022-10-28T23:07:24.764Z,17.75
2022-10-28T23:09:51.379Z,17.92
2022-10-28T23:12:18.117Z,18.12
2022-10-28T23:14:44.678Z,18.28
2022-10-28T23:17:11.236Z,18.35
2022-10-28T23:19:37.857Z,18.27
2022-10-28T23:22:04.398Z,18.46
2022-10-28T23:24:30.999Z,18.44
2022-10-28T23:29:23.981Z,18.53
2022-10-28T23:31:50.476Z,18.58
2022-10-28T23:34:16.997Z,18.59
2022-10-28T23:36:43.426Z,18.70
2022-10-28T23:39:09.936Z,18.66
2022-10-28T23:41:36.419Z,18.62
2022-10-28T23:44:02.941Z,18.62
2022-10-28T23:46:33.638Z,18.60
2022-10-28T23:49:03.153Z,18.54
2022-10-28T23:51:29.607Z,18.54
2022-10-28T23:53:56.090Z,18.52
2022-10-28T23:56:22.561Z,18.51
2022-10-28T23:58:49.018Z,18.48
